WEATHER

Warnervale Skycam

North West View

North West View

South West View

South West View

Mean Sea Level Pressure Analysis (Synoptic Chart)

Synoptic Chart

  • YSSY TAF

    TAF YSSY 260507Z 2606/2712 16012KT 9999 -SHRA FEW012 SCT025 FM260900 22008KT 9999 SCT030 FM261400 28008KT 9999 SCT020 FM270000 01010KT 9999 FEW030 FM270200 03015KT CAVOK INTER 2606/2608 4000 SHRA BKN010 PROB30 TEMPO 2606/2607 VRB25G35KT 3000 TSRA BKN010 SCT030CB PROB30 2618/2622 4000 BR RMK T 14 13 13 11 Q 1021 1022 1022 1022

  • YSSY METAR

    TTF METAR YSSY 260730Z 07007KT 9999 FEW022 SCT048 BKN160 14/09 Q1021 RMK RF00.0/000.4 DISTANT SHRA TO N NOSIG

Sydney Rainfall Radar

128 km Sydney Radar

Sydney Rainfall Radar

 

512 km Sydney Radar

Sydney Rainfall Radar 512km

 

Rainfall radar and satellite images obtained from the Bureau of Meteorology. All information provided on this page is for general information and should NOT be used for flight planning.